Time;durP1;ratioP1;P1;durP2;ratioP2;P2;SDS_P1;SDS_P2;PMS_P1;PMS_P2;Temp;Humidity;BMP_temperature;BMP_pressure;BME280_temperature;BME280_humidity;BME280_pressure;Samples;Min_cycle;Max_cycle;Signal;HPM_P1;HPM_P2
2021/08/26 00:06:43;;;;;;;;;;;14.90;99.90;;;;;;4949245;28;19938;-87
2021/08/26 00:09:09;;;;;;;;;;;14.90;99.90;;;;;;4937460;28;19930;-85
2021/08/26 00:11:36;;;;;;;;;;;14.90;99.90;;;;;;4921019;28;19994;-86
2021/08/26 00:14:02;;;;;;;;;;;14.90;99.90;;;;;;4927709;29;19934;-85
2021/08/26 00:16:28;;;;;;;;;;;14.90;99.90;;;;;;4935419;28;20404;-86
2021/08/26 00:18:54;;;;;;;;;;;14.90;99.90;;;;;;4920679;28;20443;-86
2021/08/26 00:21:20;;;;;;;;;;;14.90;99.90;;;;;;4952008;28;19973;-85
2021/08/26 00:23:46;;;;;;;;;;;14.90;99.90;;;;;;4953573;28;20013;-86
2021/08/26 00:26:11;;;;;;;;;;;14.90;99.90;;;;;;4916185;28;19933;-86
2021/08/26 00:28:37;;;;;;;;;;;14.90;99.90;;;;;;4924582;28;20278;-86
2021/08/26 00:31:03;;;;;;;;;;;14.90;99.90;;;;;;4929913;28;19927;-86
2021/08/26 00:33:29;;;;;;;;;;;15.00;99.90;;;;;;4957587;28;20476;-85
2021/08/26 00:35:57;;;;;;;;;;;15.00;99.90;;;;;;4953136;28;20009;-86
2021/08/26 00:38:23;;;;;;;;;;;15.00;99.90;;;;;;4919435;28;20063;-86
2021/08/26 00:40:48;;;;;;;;;;;15.00;99.90;;;;;;4912753;28;20449;-86
2021/08/26 00:43:14;;;;;;;;;;;15.00;99.90;;;;;;4936239;28;20278;-86
2021/08/26 00:45:41;;;;;;;;;;;15.00;99.90;;;;;;4936735;28;19991;-86
2021/08/26 00:48:07;;;;;;;;;;;15.00;99.90;;;;;;4936244;28;20597;-86
2021/08/26 00:50:33;;;;;;;;;;;15.00;99.90;;;;;;4936477;28;19926;-86
2021/08/26 00:52:59;;;;;;;;;;;15.00;99.90;;;;;;4963420;28;19921;-86
2021/08/26 00:55:24;;;;;;;;;;;15.00;99.90;;;;;;4937007;28;19933;-86
2021/08/26 00:57:50;;;;;;;;;;;15.00;99.90;;;;;;4939929;28;20395;-86
2021/08/26 01:00:16;;;;;;;;;;;15.10;99.90;;;;;;4946701;28;20427;-86
2021/08/26 01:02:56;;;;;;;;;;;15.10;99.90;;;;;;4920579;28;20640;-86
2021/08/26 01:05:28;;;;;;;;;;;15.20;99.90;;;;;;4931824;28;20301;-86
2021/08/26 01:07:58;;;;;;;;;;;15.20;99.90;;;;;;4938478;28;20405;-86
2021/08/26 01:10:24;;;;;;;;;;;15.20;99.90;;;;;;4949359;28;20025;-86
2021/08/26 01:12:51;;;;;;;;;;;15.20;99.90;;;;;;4948089;28;20006;-85
2021/08/26 01:15:17;;;;;;;;;;;15.30;99.90;;;;;;4938029;28;20441;-86
2021/08/26 01:17:43;;;;;;;;;;;15.30;99.90;;;;;;4919928;28;20005;-85
2021/08/26 01:20:09;;;;;;;;;;;15.30;99.90;;;;;;4919707;28;20313;-86
2021/08/26 01:22:35;;;;;;;;;;;15.30;99.90;;;;;;4920538;28;19929;-85
2021/08/26 01:25:09;;;;;;;;;;;15.30;99.90;;;;;;4916813;28;20029;-85
2021/08/26 01:27:39;;;;;;;;;;;15.40;99.90;;;;;;4951893;28;20310;-86
2021/08/26 01:30:06;;;;;;;;;;;15.40;99.90;;;;;;4935810;28;19969;-86
2021/08/26 01:32:31;;;;;;;;;;;15.40;99.90;;;;;;4934909;28;19933;-86
2021/08/26 01:34:57;;;;;;;;;;;15.40;99.90;;;;;;4928603;28;19922;-86
2021/08/26 01:37:23;;;;;;;;;;;15.40;99.90;;;;;;4936309;28;19933;-86
2021/08/26 01:39:49;;;;;;;;;;;15.50;99.90;;;;;;4936170;28;19936;-86
2021/08/26 01:42:15;;;;;;;;;;;15.50;99.90;;;;;;4931351;28;20009;-86
2021/08/26 01:44:41;;;;;;;;;;;15.40;99.90;;;;;;4939901;28;19926;-85
2021/08/26 01:47:16;;;;;;;;;;;15.40;99.90;;;;;;4936183;28;20012;-86
2021/08/26 01:49:42;;;;;;;;;;;15.40;99.90;;;;;;4921154;28;19926;-86
2021/08/26 01:52:08;;;;;;;;;;;15.40;99.90;;;;;;4934747;28;19926;-86
2021/08/26 01:54:34;;;;;;;;;;;15.40;99.90;;;;;;4919702;28;20021;-86
2021/08/26 01:56:59;;;;;;;;;;;15.40;99.90;;;;;;4935276;28;19926;-86
2021/08/26 01:59:25;;;;;;;;;;;15.40;99.90;;;;;;4920914;28;19930;-85
2021/08/26 02:01:51;;;;;;;;;;;15.40;99.90;;;;;;4938891;28;19926;-85
2021/08/26 02:04:16;;;;;;;;;;;15.40;99.90;;;;;;4946139;28;19923;-86
2021/08/26 02:06:42;;;;;;;;;;;15.40;99.90;;;;;;4930100;28;19929;-85
2021/08/26 02:09:07;;;;;;;;;;;15.40;99.90;;;;;;4951334;28;19953;-86
2021/08/26 02:11:33;;;;;;;;;;;15.40;99.90;;;;;;4934618;28;19939;-86
2021/08/26 02:13:58;;;;;;;;;;;15.40;99.90;;;;;;4931367;28;20401;-85
2021/08/26 02:16:24;;;;;;;;;;;15.40;99.90;;;;;;4931262;28;19927;-85
2021/08/26 02:18:49;;;;;;;;;;;15.40;99.90;;;;;;4909623;28;19977;-86
2021/08/26 02:21:15;;;;;;;;;;;15.40;99.90;;;;;;4919032;28;19922;-86
2021/08/26 02:23:41;;;;;;;;;;;15.40;99.90;;;;;;4926629;28;19932;-86
2021/08/26 02:26:06;;;;;;;;;;;15.30;99.90;;;;;;4951474;28;19922;-86
2021/08/26 02:28:32;;;;;;;;;;;15.30;99.90;;;;;;4950747;28;19926;-85
2021/08/26 02:30:58;;;;;;;;;;;15.30;99.90;;;;;;4936017;28;19922;-86
2021/08/26 02:33:23;;;;;;;;;;;15.30;99.90;;;;;;4951474;28;19926;-86
2021/08/26 02:35:49;;;;;;;;;;;15.30;99.90;;;;;;4918673;28;19922;-86
2021/08/26 02:38:14;;;;;;;;;;;15.30;99.90;;;;;;4935321;28;20021;-87
2021/08/26 02:40:40;;;;;;;;;;;15.20;99.90;;;;;;4928928;28;19937;-86
2021/08/26 02:43:06;;;;;;;;;;;15.10;99.90;;;;;;4935274;28;20401;-86
2021/08/26 02:45:31;;;;;;;;;;;15.00;99.90;;;;;;4972354;28;19926;-86
2021/08/26 02:47:57;;;;;;;;;;;14.90;99.90;;;;;;4956402;28;19926;-86
2021/08/26 02:50:22;;;;;;;;;;;14.80;99.90;;;;;;4958473;28;20019;-86
2021/08/26 02:52:48;;;;;;;;;;;14.70;99.90;;;;;;4937780;28;20389;-86
2021/08/26 02:55:13;;;;;;;;;;;14.70;99.90;;;;;;4939644;28;19984;-86
2021/08/26 02:57:39;;;;;;;;;;;14.60;99.90;;;;;;4972704;28;19929;-86
2021/08/26 03:00:05;;;;;;;;;;;14.60;99.90;;;;;;4957982;28;19941;-85
2021/08/26 03:02:31;;;;;;;;;;;14.60;99.90;;;;;;4934653;28;20452;-87
2021/08/26 03:04:56;;;;;;;;;;;14.60;99.90;;;;;;4960156;28;20024;-86
2021/08/26 03:07:22;;;;;;;;;;;14.50;99.90;;;;;;4973491;28;19933;-86
2021/08/26 03:09:47;;;;;;;;;;;14.50;99.90;;;;;;4938389;28;19948;-86
2021/08/26 03:12:13;;;;;;;;;;;14.50;99.90;;;;;;4937733;28;19922;-85
2021/08/26 03:14:38;;;;;;;;;;;14.60;99.90;;;;;;4970812;28;19934;-86
2021/08/26 03:17:04;;;;;;;;;;;14.60;99.90;;;;;;4940674;28;19934;-86
2021/08/26 03:19:29;;;;;;;;;;;14.70;99.90;;;;;;4957019;28;19930;-86
2021/08/26 03:21:55;;;;;;;;;;;14.70;99.90;;;;;;4956131;28;19948;-86
2021/08/26 03:24:21;;;;;;;;;;;14.70;99.90;;;;;;4943936;28;19925;-86
2021/08/26 03:26:46;;;;;;;;;;;14.80;99.90;;;;;;4973623;28;19977;-86
2021/08/26 03:29:12;;;;;;;;;;;14.80;99.90;;;;;;4956834;28;19972;-85
2021/08/26 03:31:37;;;;;;;;;;;14.80;99.90;;;;;;4957965;28;19925;-86
2021/08/26 03:34:03;;;;;;;;;;;14.80;99.90;;;;;;4938659;28;20317;-87
2021/08/26 03:36:28;;;;;;;;;;;14.70;99.90;;;;;;4973690;28;19937;-86
2021/08/26 03:38:55;;;;;;;;;;;14.70;99.90;;;;;;4972243;28;19934;-85
2021/08/26 03:41:20;;;;;;;;;;;14.70;99.90;;;;;;4957980;28;20037;-86
2021/08/26 03:43:47;;;;;;;;;;;14.70;99.90;;;;;;4973253;28;20326;-86
2021/08/26 03:46:12;;;;;;;;;;;14.70;99.90;;;;;;4941709;28;20005;-86
2021/08/26 03:48:38;;;;;;;;;;;14.70;99.90;;;;;;4956351;28;20040;-86
2021/08/26 03:51:03;;;;;;;;;;;14.70;99.90;;;;;;4941682;28;19929;-86
2021/08/26 03:53:29;;;;;;;;;;;14.70;99.90;;;;;;4954953;28;19969;-85
2021/08/26 03:55:54;;;;;;;;;;;14.70;99.90;;;;;;4972703;28;19921;-85
2021/08/26 03:58:20;;;;;;;;;;;14.70;99.90;;;;;;4932524;28;19973;-85
2021/08/26 04:00:45;;;;;;;;;;;14.70;99.90;;;;;;4951152;28;19940;-85
2021/08/26 04:03:11;;;;;;;;;;;14.70;99.90;;;;;;4953789;28;20305;-85
2021/08/26 04:05:37;;;;;;;;;;;14.70;99.90;;;;;;4941135;28;19984;-85
2021/08/26 04:08:02;;;;;;;;;;;14.80;99.90;;;;;;4956095;28;20431;-85
2021/08/26 04:10:28;;;;;;;;;;;14.80;99.90;;;;;;4940383;28;19922;-86
2021/08/26 04:12:53;;;;;;;;;;;14.80;99.90;;;;;;4946051;28;20361;-85
2021/08/26 04:15:19;;;;;;;;;;;14.80;99.90;;;;;;4941703;28;19930;-85
2021/08/26 04:17:44;;;;;;;;;;;14.70;99.90;;;;;;4939653;28;20017;-86
2021/08/26 04:20:10;;;;;;;;;;;14.70;99.90;;;;;;4955747;28;20647;-86
2021/08/26 04:22:36;;;;;;;;;;;14.70;99.90;;;;;;4946323;28;19950;-86
2021/08/26 04:25:02;;;;;;;;;;;14.70;99.90;;;;;;4954546;28;19937;-86
2021/08/26 04:27:27;;;;;;;;;;;14.70;99.90;;;;;;4947872;28;19972;-86
2021/08/26 04:29:53;;;;;;;;;;;14.70;99.90;;;;;;4939662;28;19926;-86
2021/08/26 04:32:18;;;;;;;;;;;14.70;99.90;;;;;;4947331;28;19925;-86
2021/08/26 04:34:44;;;;;;;;;;;14.70;99.90;;;;;;4955553;28;19932;-86
2021/08/26 04:37:09;;;;;;;;;;;14.80;99.90;;;;;;4972269;28;19932;-86
2021/08/26 04:39:35;;;;;;;;;;;14.80;99.90;;;;;;4947520;28;19930;-86
2021/08/26 04:42:00;;;;;;;;;;;14.80;99.90;;;;;;4935245;28;19953;-86
2021/08/26 04:44:28;;;;;;;;;;;14.80;99.90;;;;;;4931713;28;19995;-86
2021/08/26 04:46:53;;;;;;;;;;;14.80;99.90;;;;;;4939855;28;20032;-86
2021/08/26 04:49:19;;;;;;;;;;;14.80;99.90;;;;;;4954384;28;20030;-86
2021/08/26 04:51:45;;;;;;;;;;;14.80;99.90;;;;;;4954375;28;20440;-86
2021/08/26 04:54:12;;;;;;;;;;;14.90;99.90;;;;;;4935849;28;20373;-86
2021/08/26 04:56:38;;;;;;;;;;;14.80;99.90;;;;;;4933222;28;20004;-86
2021/08/26 04:59:04;;;;;;;;;;;14.80;99.90;;;;;;4939707;28;19925;-85
2021/08/26 05:01:30;;;;;;;;;;;14.80;99.90;;;;;;4955221;28;19926;-86
2021/08/26 05:03:55;;;;;;;;;;;14.90;99.90;;;;;;4945201;28;19928;-88
2021/08/26 05:06:21;;;;;;;;;;;14.80;99.90;;;;;;4956168;28;19929;-87
2021/08/26 05:08:46;;;;;;;;;;;14.90;99.90;;;;;;4950782;28;19925;-88
2021/08/26 05:11:21;;;;;;;;;;;14.90;99.90;;;;;;4955726;28;19922;-87
2021/08/26 05:13:47;;;;;;;;;;;14.90;99.90;;;;;;4934556;28;19922;-87
2021/08/26 05:16:12;;;;;;;;;;;14.90;99.90;;;;;;4945903;28;19922;-87
2021/08/26 05:18:38;;;;;;;;;;;15.00;99.90;;;;;;4934008;28;20393;-88
2021/08/26 05:21:03;;;;;;;;;;;15.00;99.90;;;;;;4929707;28;19930;-88
2021/08/26 05:23:29;;;;;;;;;;;15.00;99.90;;;;;;4971479;28;19972;-86
2021/08/26 05:25:55;;;;;;;;;;;15.10;99.90;;;;;;4932008;28;20017;-86
2021/08/26 05:28:21;;;;;;;;;;;15.10;99.90;;;;;;4939209;28;19926;-85
2021/08/26 05:30:46;;;;;;;;;;;15.10;99.90;;;;;;4954187;28;19942;-87
2021/08/26 05:33:12;;;;;;;;;;;15.20;99.90;;;;;;4967949;28;19929;-88
2021/08/26 05:35:38;;;;;;;;;;;15.20;99.90;;;;;;4949665;28;19969;-87
2021/08/26 05:38:03;;;;;;;;;;;15.20;99.90;;;;;;4932296;28;20385;-86
2021/08/26 05:40:29;;;;;;;;;;;15.30;99.90;;;;;;4945496;28;19929;-87
2021/08/26 05:42:55;;;;;;;;;;;15.30;99.90;;;;;;4935884;28;19922;-87
2021/08/26 05:45:20;;;;;;;;;;;15.30;99.90;;;;;;4957211;28;20028;-87
2021/08/26 05:47:46;;;;;;;;;;;15.30;99.90;;;;;;4931784;28;19980;-87
2021/08/26 05:50:12;;;;;;;;;;;15.40;99.90;;;;;;4958070;28;19926;-87
2021/08/26 05:52:37;;;;;;;;;;;15.40;99.90;;;;;;4941172;28;19932;-86
2021/08/26 05:55:03;;;;;;;;;;;15.40;99.90;;;;;;4960088;28;19956;-87
2021/08/26 05:57:29;;;;;;;;;;;15.30;99.90;;;;;;4931995;28;19957;-87
2021/08/26 05:59:54;;;;;;;;;;;15.30;99.90;;;;;;4947618;28;19926;-87
2021/08/26 06:02:20;;;;;;;;;;;15.30;99.90;;;;;;4946877;28;19926;-87
2021/08/26 06:04:45;;;;;;;;;;;15.20;99.90;;;;;;4945697;28;19925;-87
2021/08/26 06:07:11;;;;;;;;;;;15.20;99.90;;;;;;4965255;28;19992;-87
2021/08/26 06:09:37;;;;;;;;;;;15.10;99.90;;;;;;4945622;28;19949;-87
2021/08/26 06:12:02;;;;;;;;;;;15.10;99.90;;;;;;4947574;28;19926;-87
2021/08/26 06:14:28;;;;;;;;;;;15.10;99.90;;;;;;4936399;28;19932;-87
2021/08/26 06:16:53;;;;;;;;;;;15.00;99.90;;;;;;4946768;28;20006;-87
2021/08/26 06:19:19;;;;;;;;;;;15.00;99.90;;;;;;4950906;28;19953;-87
2021/08/26 06:21:45;;;;;;;;;;;15.10;99.90;;;;;;4937013;28;20407;-87
2021/08/26 06:24:10;;;;;;;;;;;15.10;99.90;;;;;;4966543;28;20406;-87
2021/08/26 06:26:37;;;;;;;;;;;15.10;99.90;;;;;;4946439;28;19926;-87
2021/08/26 06:29:03;;;;;;;;;;;15.10;99.90;;;;;;4961486;28;19933;-86
2021/08/26 06:31:29;;;;;;;;;;;15.10;99.90;;;;;;4952322;28;19926;-87
2021/08/26 06:33:54;;;;;;;;;;;15.10;99.90;;;;;;4948760;28;19929;-87
2021/08/26 06:36:20;;;;;;;;;;;15.10;99.90;;;;;;4948364;28;19932;-87
2021/08/26 06:38:45;;;;;;;;;;;15.10;99.90;;;;;;4952506;28;19932;-87
2021/08/26 06:41:11;;;;;;;;;;;15.20;99.90;;;;;;4946484;28;19948;-87
2021/08/26 06:43:37;;;;;;;;;;;15.20;99.90;;;;;;4939803;28;19933;-88
2021/08/26 06:46:02;;;;;;;;;;;15.20;99.90;;;;;;4954248;28;19921;-88
2021/08/26 06:48:28;;;;;;;;;;;15.30;99.90;;;;;;4940225;28;19925;-87
2021/08/26 06:50:53;;;;;;;;;;;15.30;99.90;;;;;;4938169;28;19933;-87
2021/08/26 06:53:19;;;;;;;;;;;15.40;99.90;;;;;;4954654;28;19965;-87
2021/08/26 06:55:45;;;;;;;;;;;15.40;99.90;;;;;;4943286;28;19926;-87
2021/08/26 06:58:10;;;;;;;;;;;15.40;99.90;;;;;;4941045;28;20012;-86
2021/08/26 07:00:36;;;;;;;;;;;15.40;99.90;;;;;;4979282;28;19925;-88
2021/08/26 07:03:01;;;;;;;;;;;15.50;99.90;;;;;;4950892;28;20393;-89
2021/08/26 07:05:27;;;;;;;;;;;15.50;99.90;;;;;;4968373;28;20420;-87
2021/08/26 07:07:52;;;;;;;;;;;15.60;99.90;;;;;;4973113;28;20008;-87
2021/08/26 07:10:18;;;;;;;;;;;15.60;99.90;;;;;;4952505;28;19928;-87
2021/08/26 07:12:45;;;;;;;;;;;15.60;99.90;;;;;;4957439;28;20387;-87
2021/08/26 07:15:10;;;;;;;;;;;15.70;99.90;;;;;;4957399;28;19965;-87
2021/08/26 07:17:36;;;;;;;;;;;15.70;99.90;;;;;;4957414;28;19975;-87
2021/08/26 07:20:03;;;;;;;;;;;15.80;99.90;;;;;;4955398;28;19952;-87
2021/08/26 07:22:29;;;;;;;;;;;15.80;99.90;;;;;;4955410;28;20506;-87
2021/08/26 07:24:54;;;;;;;;;;;15.90;99.90;;;;;;4955190;28;20012;-87
2021/08/26 07:27:20;;;;;;;;;;;15.90;99.90;;;;;;4940218;28;19925;-88
2021/08/26 07:29:45;;;;;;;;;;;16.00;99.90;;;;;;4938324;28;19933;-87
2021/08/26 07:32:11;;;;;;;;;;;16.00;99.90;;;;;;4936193;28;19991;-87
2021/08/26 07:34:36;;;;;;;;;;;16.10;99.90;;;;;;4939232;28;19921;-87
2021/08/26 07:37:02;;;;;;;;;;;16.20;99.90;;;;;;4938489;28;20163;-88
2021/08/26 07:39:28;;;;;;;;;;;16.20;99.90;;;;;;4939707;28;19967;-87
2021/08/26 07:41:53;;;;;;;;;;;16.30;99.90;;;;;;4939599;28;19926;-88
2021/08/26 07:44:19;;;;;;;;;;;16.30;99.90;;;;;;4939536;28;19930;-87
2021/08/26 07:46:44;;;;;;;;;;;16.40;99.90;;;;;;4970878;28;20037;-88
2021/08/26 07:49:10;;;;;;;;;;;16.40;99.90;;;;;;4959634;28;19925;-88
2021/08/26 07:51:35;;;;;;;;;;;16.60;99.90;;;;;;4957137;28;20400;-88
2021/08/26 07:54:01;;;;;;;;;;;16.60;99.90;;;;;;4968555;28;19925;-88
2021/08/26 07:56:27;;;;;;;;;;;16.70;99.90;;;;;;4972655;28;20019;-88
2021/08/26 07:58:52;;;;;;;;;;;16.80;99.90;;;;;;4944142;28;19944;-87
2021/08/26 08:01:18;;;;;;;;;;;16.80;99.90;;;;;;4956584;28;19926;-88
2021/08/26 08:03:43;;;;;;;;;;;16.90;99.90;;;;;;4957033;28;20324;-87
2021/08/26 08:06:10;;;;;;;;;;;17.00;99.90;;;;;;4956712;28;19929;-87
2021/08/26 08:08:36;;;;;;;;;;;17.00;99.90;;;;;;4949692;28;20344;-88
2021/08/26 08:11:02;;;;;;;;;;;17.10;99.90;;;;;;4957483;28;19932;-88
2021/08/26 08:13:27;;;;;;;;;;;17.10;99.90;;;;;;4959721;28;20278;-88
2021/08/26 08:15:53;;;;;;;;;;;17.20;99.90;;;;;;4941418;28;19925;-88
2021/08/26 08:18:19;;;;;;;;;;;17.40;99.90;;;;;;4959061;28;19937;-88
2021/08/26 08:20:44;;;;;;;;;;;17.50;99.90;;;;;;4962620;28;19926;-88
2021/08/26 08:23:10;;;;;;;;;;;17.60;99.90;;;;;;4959443;28;20293;-87
2021/08/26 08:25:35;;;;;;;;;;;17.60;99.90;;;;;;4969126;28;19922;-88
2021/08/26 08:28:01;;;;;;;;;;;17.70;99.90;;;;;;4954945;28;20395;-88
2021/08/26 08:30:27;;;;;;;;;;;17.80;99.90;;;;;;4956388;28;19930;-88
2021/08/26 08:32:54;;;;;;;;;;;17.80;99.90;;;;;;4955903;28;19926;-88
2021/08/26 08:35:22;;;;;;;;;;;17.80;99.90;;;;;;4956786;28;19932;-88
2021/08/26 08:37:48;;;;;;;;;;;17.70;99.90;;;;;;4939407;28;19926;-88
2021/08/26 08:40:14;;;;;;;;;;;17.70;99.90;;;;;;4956292;28;19925;-88
2021/08/26 08:42:39;;;;;;;;;;;17.70;99.90;;;;;;4939932;28;20034;-88
2021/08/26 08:45:05;;;;;;;;;;;17.60;99.90;;;;;;4957078;28;20019;-88
2021/08/26 08:47:32;;;;;;;;;;;17.60;99.90;;;;;;4939212;28;20789;-88
2021/08/26 08:49:58;;;;;;;;;;;17.60;99.90;;;;;;4956415;28;20032;-88
2021/08/26 08:52:24;;;;;;;;;;;17.60;99.90;;;;;;4939704;28;20041;-88
2021/08/26 08:54:52;;;;;;;;;;;17.60;99.90;;;;;;4956355;28;19972;-88
2021/08/26 08:57:18;;;;;;;;;;;17.60;99.90;;;;;;4955552;28;20024;-88
2021/08/26 08:59:44;;;;;;;;;;;17.60;99.90;;;;;;4955921;28;20499;-88
2021/08/26 09:02:09;;;;;;;;;;;17.60;99.90;;;;;;4939727;28;20354;-88
2021/08/26 09:04:52;;;;;;;;;;;17.60;99.90;;;;;;4956381;28;19921;-88
2021/08/26 09:07:25;;;;;;;;;;;17.60;99.90;;;;;;4959732;28;20270;-88
2021/08/26 09:09:54;;;;;;;;;;;17.70;99.90;;;;;;4954980;28;19929;-88
2021/08/26 09:12:20;;;;;;;;;;;17.70;99.90;;;;;;4961057;28;19926;-88
2021/08/26 09:14:46;;;;;;;;;;;17.80;99.90;;;;;;4994875;28;20486;-88
2021/08/26 09:17:18;;;;;;;;;;;17.80;99.90;;;;;;4971914;28;19933;-88
2021/08/26 09:19:44;;;;;;;;;;;17.90;99.90;;;;;;4985644;28;19922;-87
2021/08/26 09:22:20;;;;;;;;;;;17.90;99.90;;;;;;4956250;28;19948;-89
2021/08/26 09:24:52;;;;;;;;;;;18.00;99.90;;;;;;4954575;28;19929;-88
2021/08/26 09:27:46;;;;;;;;;;;18.00;99.90;;;;;;4971854;28;19933;-88
2021/08/26 09:30:22;;;;;;;;;;;18.10;99.90;;;;;;4958547;28;19926;-88
2021/08/26 09:32:49;;;;;;;;;;;18.20;99.90;;;;;;4939690;28;19922;-88
2021/08/26 09:35:14;;;;;;;;;;;18.20;99.90;;;;;;4956146;28;20404;-88
2021/08/26 09:37:44;;;;;;;;;;;18.20;99.90;;;;;;4955407;28;19965;-88
2021/08/26 09:40:11;;;;;;;;;;;18.20;99.90;;;;;;4954898;28;20381;-88
2021/08/26 09:42:36;;;;;;;;;;;18.20;99.90;;;;;;4939476;28;19965;-88
2021/08/26 09:45:25;;;;;;;;;;;18.10;99.90;;;;;;4939972;28;19961;-88
2021/08/26 09:48:01;;;;;;;;;;;18.10;99.90;;;;;;4955233;28;19929;-88
2021/08/26 09:50:38;;;;;;;;;;;18.00;99.90;;;;;;4955088;28;19973;-88
2021/08/26 09:53:04;;;;;;;;;;;18.00;99.90;;;;;;4973037;28;19976;-88
2021/08/26 09:55:48;;;;;;;;;;;18.00;99.90;;;;;;4958954;28;20337;-88
2021/08/26 09:58:14;;;;;;;;;;;18.00;99.90;;;;;;4958920;28;19926;-88
2021/08/26 10:00:39;;;;;;;;;;;18.00;99.90;;;;;;4958957;28;19933;-88
2021/08/26 10:03:09;;;;;;;;;;;18.00;99.90;;;;;;4955796;28;19922;-89
2021/08/26 10:05:36;;;;;;;;;;;18.00;99.90;;;;;;4944465;28;20393;-88
2021/08/26 10:08:02;;;;;;;;;;;18.10;99.90;;;;;;4998670;28;19934;-88
2021/08/26 10:10:27;;;;;;;;;;;18.10;99.90;;;;;;4958419;28;19929;-88
2021/08/26 10:12:53;;;;;;;;;;;18.20;99.90;;;;;;4960450;28;19933;-88
2021/08/26 10:15:19;;;;;;;;;;;18.30;99.90;;;;;;4975130;28;19926;-87
2021/08/26 10:17:45;;;;;;;;;;;18.40;99.90;;;;;;4958780;28;20281;-87
2021/08/26 10:20:11;;;;;;;;;;;18.50;99.90;;;;;;4959144;28;20371;-88
2021/08/26 10:22:36;;;;;;;;;;;18.50;99.90;;;;;;4942381;28;20373;-88
2021/08/26 10:25:02;;;;;;;;;;;18.60;99.90;;;;;;4958789;28;19941;-88
2021/08/26 10:27:30;;;;;;;;;;;18.60;99.90;;;;;;4942717;28;19978;-88
2021/08/26 10:29:56;;;;;;;;;;;18.60;99.90;;;;;;4959234;28;19976;-88
2021/08/26 10:32:25;;;;;;;;;;;18.70;99.90;;;;;;4957915;28;20296;-88
2021/08/26 10:35:06;;;;;;;;;;;18.60;99.90;;;;;;4943584;28;19921;-88
2021/08/26 10:37:53;;;;;;;;;;;18.70;99.90;;;;;;4958159;28;19973;-88
2021/08/26 10:40:25;;;;;;;;;;;18.70;99.90;;;;;;4958548;28;20032;-88
2021/08/26 10:42:51;;;;;;;;;;;18.80;99.90;;;;;;4973742;28;20482;-88
2021/08/26 10:45:23;;;;;;;;;;;18.80;99.90;;;;;;4959348;28;19926;-88
2021/08/26 10:47:49;;;;;;;;;;;18.80;99.90;;;;;;4958559;28;19921;-88
2021/08/26 10:50:28;;;;;;;;;;;18.80;99.90;;;;;;4958869;28;20021;-88
2021/08/26 10:53:04;;;;;;;;;;;18.70;99.90;;;;;;4957320;28;19945;-88
2021/08/26 10:55:47;;;;;;;;;;;18.70;99.90;;;;;;4958473;28;19968;-88
2021/08/26 10:58:16;;;;;;;;;;;18.70;99.90;;;;;;4958199;28;19942;-88
2021/08/26 11:00:42;;;;;;;;;;;18.80;99.90;;;;;;4957738;28;20298;-88
2021/08/26 11:03:08;;;;;;;;;;;18.80;99.90;;;;;;4960028;28;20300;-88
2021/08/26 11:05:37;;;;;;;;;;;18.80;99.90;;;;;;4974208;28;19926;-88
2021/08/26 11:08:21;;;;;;;;;;;18.90;99.90;;;;;;4966372;28;19926;-89
2021/08/26 11:10:47;;;;;;;;;;;18.90;99.90;;;;;;4958191;28;19929;-88
2021/08/26 11:13:26;;;;;;;;;;;18.90;99.90;;;;;;4957000;28;20062;-88
2021/08/26 11:15:51;;;;;;;;;;;18.90;99.90;;;;;;4958319;28;19941;-88
2021/08/26 11:18:30;;;;;;;;;;;19.00;99.90;;;;;;4957711;28;19930;-88
2021/08/26 11:20:56;;;;;;;;;;;19.00;99.90;;;;;;4957878;28;19957;-88
2021/08/26 11:23:41;;;;;;;;;;;18.90;99.90;;;;;;4956963;28;19968;-88
2021/08/26 11:26:25;;;;;;;;;;;18.90;99.90;;;;;;4957680;28;20013;-88
2021/08/26 11:28:51;;;;;;;;;;;18.80;99.90;;;;;;4982149;28;19921;-88
2021/08/26 11:31:17;;;;;;;;;;;18.80;99.90;;;;;;4943843;28;19926;-88
2021/08/26 11:33:43;;;;;;;;;;;18.90;99.90;;;;;;4987571;28;19932;-89
2021/08/26 11:36:15;;;;;;;;;;;19.10;99.90;;;;;;4958243;28;19925;-89
2021/08/26 11:38:49;;;;;;;;;;;19.40;99.90;;;;;;4964274;28;20344;-89
2021/08/26 11:41:14;;;;;;;;;;;19.50;99.90;;;;;;4958058;28;19925;-89
2021/08/26 11:43:43;;;;;;;;;;;19.50;99.90;;;;;;4940044;28;19944;-89
2021/08/26 11:46:10;;;;;;;;;;;19.50;99.90;;;;;;4990340;28;19925;-89
2021/08/26 11:48:36;;;;;;;;;;;19.30;99.90;;;;;;4941495;28;20295;-88
2021/08/26 11:51:02;;;;;;;;;;;19.40;99.90;;;;;;4958118;28;19925;-89
2021/08/26 11:53:27;;;;;;;;;;;19.50;99.90;;;;;;4956740;28;20457;-89
2021/08/26 11:55:55;;;;;;;;;;;19.70;99.90;;;;;;4957925;28;19922;-89
2021/08/26 11:58:20;;;;;;;;;;;19.80;99.90;;;;;;4956466;28;19930;-89
2021/08/26 12:00:49;;;;;;;;;;;19.80;99.90;;;;;;4941538;28;19922;-88
2021/08/26 12:03:14;;;;;;;;;;;19.70;99.90;;;;;;4954635;28;19965;-89
2021/08/26 12:05:41;;;;;;;;;;;19.70;99.90;;;;;;4972703;28;20424;-89
2021/08/26 12:08:07;;;;;;;;;;;19.80;99.90;;;;;;4972945;28;20005;-89
2021/08/26 12:10:34;;;;;;;;;;;19.90;99.90;;;;;;4941660;28;20016;-89
2021/08/26 12:13:01;;;;;;;;;;;19.90;99.90;;;;;;4954876;28;19926;-88
2021/08/26 12:15:26;;;;;;;;;;;19.80;99.90;;;;;;4956677;28;19965;-89
2021/08/26 12:18:03;;;;;;;;;;;19.90;99.90;;;;;;4957513;28;19984;-89
2021/08/26 12:20:29;;;;;;;;;;;19.80;99.90;;;;;;4988812;28;20377;-89
2021/08/26 12:22:55;;;;;;;;;;;19.70;99.90;;;;;;4956983;28;19976;-89
2021/08/26 12:25:33;;;;;;;;;;;19.50;99.90;;;;;;4955793;28;19922;-89
2021/08/26 12:28:00;;;;;;;;;;;19.50;99.90;;;;;;4989095;28;19925;-89
2021/08/26 12:30:45;;;;;;;;;;;19.40;99.90;;;;;;4956174;28;19968;-89
2021/08/26 12:33:13;;;;;;;;;;;19.50;99.90;;;;;;4972184;28;19991;-89
2021/08/26 12:35:47;;;;;;;;;;;19.70;99.90;;;;;;4956337;28;19932;-89
2021/08/26 12:38:13;;;;;;;;;;;19.70;99.90;;;;;;4956700;28;19936;-89
2021/08/26 12:40:53;;;;;;;;;;;19.80;99.90;;;;;;4940702;28;19972;-89
2021/08/26 12:43:20;;;;;;;;;;;19.90;99.90;;;;;;4971724;28;19951;-89
2021/08/26 12:45:46;;;;;;;;;;;19.90;99.90;;;;;;4988680;28;20449;-89
2021/08/26 12:48:24;;;;;;;;;;;19.90;99.90;;;;;;4956430;28;20016;-89
2021/08/26 12:51:03;;;;;;;;;;;19.80;99.90;;;;;;4956658;28;19933;-88
2021/08/26 12:53:29;;;;;;;;;;;19.70;99.90;;;;;;4955961;28;19932;-89
2021/08/26 12:55:58;;;;;;;;;;;19.70;99.90;;;;;;4932840;28;20012;-89
2021/08/26 12:58:24;;;;;;;;;;;19.70;99.90;;;;;;4928553;28;19933;-88
2021/08/26 13:00:49;;;;;;;;;;;19.70;99.90;;;;;;4934557;28;19943;-88
2021/08/26 13:03:15;;;;;;;;;;;19.60;99.90;;;;;;4950880;28;19925;-89
2021/08/26 13:05:48;;;;;;;;;;;19.40;99.90;;;;;;4951978;28;20385;-89
2021/08/26 13:08:14;;;;;;;;;;;19.40;99.90;;;;;;4962112;28;19950;-89
2021/08/26 13:10:40;;;;;;;;;;;19.30;99.90;;;;;;4971997;28;20359;-89
2021/08/26 13:13:16;;;;;;;;;;;19.30;99.90;;;;;;4972402;28;19972;-89
2021/08/26 13:15:42;;;;;;;;;;;19.30;99.90;;;;;;4955664;28;19926;-89
2021/08/26 13:18:09;;;;;;;;;;;19.30;99.90;;;;;;4971783;28;19930;-89
2021/08/26 13:20:36;;;;;;;;;;;19.20;99.90;;;;;;4955545;28;19952;-89
2021/08/26 13:23:04;;;;;;;;;;;19.30;99.90;;;;;;4959762;28;20445;-89
2021/08/26 13:25:30;;;;;;;;;;;19.40;99.90;;;;;;4956226;28;20401;-88
2021/08/26 13:27:55;;;;;;;;;;;19.40;99.90;;;;;;4939148;28;19965;-89
2021/08/26 13:30:21;;;;;;;;;;;19.40;99.90;;;;;;4940198;28;20377;-88
2021/08/26 13:32:47;;;;;;;;;;;19.40;99.90;;;;;;4939451;28;20300;-89
2021/08/26 13:35:12;;;;;;;;;;;19.50;99.90;;;;;;4955983;28;20026;-89
2021/08/26 13:37:39;;;;;;;;;;;19.50;99.90;;;;;;4954511;28;19926;-89
2021/08/26 13:40:05;;;;;;;;;;;19.50;99.90;;;;;;4988123;28;19933;-89
2021/08/26 13:42:31;;;;;;;;;;;19.50;99.90;;;;;;4955541;28;19922;-89
2021/08/26 13:44:56;;;;;;;;;;;19.50;99.90;;;;;;4955601;28;19933;-89
2021/08/26 13:47:22;;;;;;;;;;;19.50;99.90;;;;;;4955265;28;19929;-89
2021/08/26 13:49:47;;;;;;;;;;;19.50;99.90;;;;;;4955254;28;19925;-88
2021/08/26 13:52:13;;;;;;;;;;;19.60;99.90;;;;;;4970941;28;19922;-88
2021/08/26 13:54:38;;;;;;;;;;;19.70;99.90;;;;;;4939255;28;20413;-88
2021/08/26 13:57:04;;;;;;;;;;;19.60;99.90;;;;;;4954935;28;19981;-89
2021/08/26 13:59:30;;;;;;;;;;;19.50;99.90;;;;;;4925770;28;19925;-89
2021/08/26 14:01:55;;;;;;;;;;;19.50;99.90;;;;;;4939271;28;19972;-89
2021/08/26 14:04:21;;;;;;;;;;;19.50;99.90;;;;;;4971714;28;19925;-89
2021/08/26 14:06:46;;;;;;;;;;;19.60;99.90;;;;;;4938576;28;20499;-89
2021/08/26 14:09:12;;;;;;;;;;;19.60;99.90;;;;;;4936501;28;19926;-88
2021/08/26 14:11:38;;;;;;;;;;;19.50;99.90;;;;;;4955130;28;19922;-89
2021/08/26 14:14:03;;;;;;;;;;;19.50;99.90;;;;;;4972065;28;19932;-88
2021/08/26 14:16:29;;;;;;;;;;;19.50;99.90;;;;;;4938844;28;19926;-89
2021/08/26 14:18:54;;;;;;;;;;;19.50;99.90;;;;;;4955071;28;19930;-87
2021/08/26 14:21:21;;;;;;;;;;;19.50;99.90;;;;;;4954899;28;19922;-88